Terminal Aerodrome Forecast
Issued by NWS Austin/San Antonio, TX

Home | Current Version | Previous Version | Text Only | Print | Product List | Glossary On
Versions: 1 2 3 4 5 6 7 8 9 10 11 12 13 14 15 16 17 18 19 20 21 22 23 24 25 26 27
000
FTUS44 KEWX 222300
TAFDRT
TAF
KDRT 222320Z 2300/2324 VRB04KT P6SM -RA FEW090 BKN120
     FM230500 11004KT 5SM BR OVC050
     FM231100 11004KT 4SM BR OVC015
     FM231700 14008KT P6SM BKN025=

USA.gov is the U.S. government's official web portal to all federal, state and local government web resources and services.